Time;durP1;ratioP1;P1;durP2;ratioP2;P2;SDS_P1;SDS_P2;PMS_P1;PMS_P2;Temp;Humidity;BMP_temperature;BMP_pressure;BME280_temperature;BME280_humidity;BME280_pressure;Samples;Min_cycle;Max_cycle;Signal;HPM_P1;HPM_P2
2021/06/01 00:00:07;;;;;;;9.40;7.73;;;;;;;13.48;73.83;101432.75;5014807;28;20192;-74
2021/06/01 00:02:32;;;;;;;13.63;7.73;;;;;;;13.47;74.20;101431.91;5015322;28;20196;-74
2021/06/01 00:04:57;;;;;;;15.33;7.80;;;;;;;13.45;73.60;101423.06;4997366;28;20173;-75
2021/06/01 00:07:23;;;;;;;11.23;7.60;;;;;;;13.45;73.91;101420.41;5014962;28;20200;-75
2021/06/01 00:09:48;;;;;;;10.40;7.90;;;;;;;13.40;74.41;101412.63;5014872;28;20169;-75
2021/06/01 00:12:14;;;;;;;11.93;7.50;;;;;;;13.33;74.46;101413.88;4980968;28;20172;-76
2021/06/01 00:14:39;;;;;;;12.63;8.77;;;;;;;13.27;74.81;101411.53;4997240;28;20181;-75
2021/06/01 00:17:04;;;;;;;13.07;8.10;;;;;;;13.22;75.39;101418.97;5014854;28;20223;-75
2021/06/01 00:19:30;;;;;;;13.73;7.87;;;;;;;13.20;75.07;101411.97;5014642;28;20561;-75
2021/06/01 00:21:55;;;;;;;15.63;8.47;;;;;;;13.18;75.14;101420.09;4997064;28;20264;-74
2021/06/01 00:24:20;;;;;;;13.63;8.57;;;;;;;13.14;75.34;101421.16;4996919;28;20205;-75
2021/06/01 00:26:46;;;;;;;11.23;7.93;;;;;;;13.14;75.25;101415.81;5014424;28;20176;-75
2021/06/01 00:29:11;;;;;;;18.30;9.47;;;;;;;13.14;75.30;101407.78;4996820;28;20188;-76
2021/06/01 00:31:37;;;;;;;17.37;8.60;;;;;;;13.12;75.34;101415.03;4997344;28;20177;-75
2021/06/01 00:34:03;;;;;;;11.57;8.30;;;;;;;13.09;75.68;101412.53;5014906;28;20177;-75
2021/06/01 00:36:29;;;;;;;15.77;9.30;;;;;;;13.07;76.13;101411.75;5014861;28;20180;-75
2021/06/01 00:38:54;;;;;;;9.87;8.20;;;;;;;13.05;76.04;101408.28;4998240;28;20287;-75
2021/06/01 00:41:19;;;;;;;12.93;8.33;;;;;;;13.04;75.64;101414.59;5022484;28;20177;-75
2021/06/01 00:43:45;;;;;;;11.30;7.10;;;;;;;13.03;75.88;101408.38;5021883;28;20184;-76
2021/06/01 00:46:10;;;;;;;13.63;8.47;;;;;;;13.03;75.78;101410.19;5000220;28;20173;-74
2021/06/01 00:48:35;;;;;;;13.50;8.70;;;;;;;13.00;75.87;101404.94;5014104;28;20528;-75
2021/06/01 00:51:01;;;;;;;24.07;15.13;;;;;;;12.94;76.34;101403.47;4996230;28;20173;-74
2021/06/01 00:53:27;;;;;;;16.70;10.37;;;;;;;12.91;77.09;101405.47;4996278;28;20183;-75
2021/06/01 00:55:52;;;;;;;16.70;10.07;;;;;;;12.86;77.06;101397.66;4996335;28;20173;-74
2021/06/01 00:58:17;;;;;;;11.77;8.20;;;;;;;12.84;76.93;101405.78;4996242;28;20200;-74
2021/06/01 01:03:27;;;;;;;14.80;8.30;;;;;;;12.79;77.38;101401.63;5014300;28;20168;-75
2021/06/01 01:05:54;;;;;;;16.10;8.80;;;;;;;12.76;77.81;101408.00;5014043;28;20180;-75
2021/06/01 01:11:01;;;;;;;10.43;7.77;;;;;;;12.77;77.04;101411.56;5000755;28;20180;-76
2021/06/01 01:13:29;;;;;;;12.10;8.23;;;;;;;12.73;77.04;101405.50;5001284;28;20204;-76
2021/06/01 01:15:55;;;;;;;10.43;8.43;;;;;;;12.71;76.99;101420.78;4986272;28;20181;-76
2021/06/01 01:18:21;;;;;;;11.80;7.87;;;;;;;12.67;77.52;101410.31;5017718;28;20197;-75
2021/06/01 01:20:57;;;;;;;16.00;8.83;;;;;;;12.65;77.19;101410.41;5000523;28;20177;-75
2021/06/01 01:23:26;;;;;;;12.53;7.90;;;;;;;12.65;76.38;101404.19;5000805;28;20161;-74
2021/06/01 01:26:01;;;;;;;12.87;8.00;;;;;;;12.62;76.92;101404.31;4984084;28;20641;-75
2021/06/01 01:28:51;;;;;;;9.87;7.90;;;;;;;12.61;77.04;101400.75;5017550;28;20271;-75
2021/06/01 01:31:25;;;;;;;13.93;8.13;;;;;;;12.64;76.92;101402.44;5017663;28;20163;-74
2021/06/01 01:33:51;;;;;;;10.27;7.47;;;;;;;12.60;77.00;101403.53;4999942;28;20682;-76
2021/06/01 01:36:17;;;;;;;13.20;7.83;;;;;;;12.61;76.40;101402.56;5017621;28;20256;-75
2021/06/01 01:38:42;;;;;;;9.13;7.77;;;;;;;12.60;77.02;101399.03;5021139;23;20636;-67
2021/06/01 01:41:11;;;;;;;12.77;7.97;;;;;;;12.55;77.12;101394.88;4999200;28;20660;-66
2021/06/01 01:43:36;;;;;;;14.17;8.47;;;;;;;12.49;77.37;101394.25;4998796;28;20180;-66
2021/06/01 01:46:14;;;;;;;12.27;8.30;;;;;;;12.47;77.17;101395.28;5016311;28;20172;-66
2021/06/01 01:49:00;;;;;;;10.73;8.13;;;;;;;12.47;77.04;101395.28;5016574;28;20193;-66
2021/06/01 01:51:35;;;;;;;10.33;7.97;;;;;;;12.43;77.50;101394.56;5016468;28;20207;-67
2021/06/01 01:54:03;;;;;;;12.53;8.10;;;;;;;12.43;76.94;101389.22;5016391;28;20188;-66
2021/06/01 01:56:33;;;;;;;12.83;8.50;;;;;;;12.41;77.71;101392.91;4982143;28;20608;-66
2021/06/01 01:58:58;;;;;;;12.13;8.17;;;;;;;12.36;77.51;101390.47;4998969;28;20205;-66
2021/06/01 02:01:24;;;;;;;9.93;7.50;;;;;;;12.35;78.05;101391.44;4998702;28;20247;-66
2021/06/01 02:03:50;;;;;;;11.70;7.63;;;;;;;12.35;77.16;101380.72;4982122;28;20185;-67
2021/06/01 02:06:16;;;;;;;13.63;7.67;;;;;;;12.34;77.20;101381.66;5016156;28;20625;-66
2021/06/01 02:08:41;;;;;;;9.63;7.57;;;;;;;12.33;77.14;101381.75;4998275;28;20262;-67
2021/06/01 02:11:07;;;;;;;12.67;7.37;;;;;;;12.31;77.63;101378.28;5016107;28;20184;-67
2021/06/01 02:13:46;;;;;;;11.57;8.03;;;;;;;12.31;77.60;101373.81;4998248;28;20177;-66
2021/06/01 02:16:11;;;;;;;12.37;8.03;;;;;;;12.26;77.54;101375.81;5016247;28;20165;-66
2021/06/01 02:18:37;;;;;;;10.63;7.10;;;;;;;12.23;77.70;101372.44;4997917;28;20200;-66
2021/06/01 02:21:05;;;;;;;10.83;8.00;;;;;;;12.20;77.74;101377.00;5014257;28;20240;-66
2021/06/01 02:23:49;;;;;;;16.00;8.17;;;;;;;12.18;77.81;101370.88;5015882;28;20187;-66
2021/06/01 02:26:26;;;;;;;13.13;7.63;;;;;;;12.17;77.70;101371.81;5000155;28;20157;-66
2021/06/01 02:28:53;;;;;;;10.83;7.33;;;;;;;12.17;77.47;101361.09;4997956;28;20188;-68
2021/06/01 02:31:27;;;;;;;11.93;7.80;;;;;;;12.14;77.75;101373.78;4998435;28;20173;-67
2021/06/01 02:33:54;;;;;;;11.63;7.50;;;;;;;12.14;78.06;101369.28;5015883;28;20176;-66
2021/06/01 02:36:19;;;;;;;14.10;8.00;;;;;;;12.14;77.84;101374.66;4997948;28;20541;-66
2021/06/01 02:38:44;;;;;;;11.97;7.63;;;;;;;12.14;77.66;101368.44;5015516;28;20209;-66
2021/06/01 02:41:11;;;;;;;9.00;7.10;;;;;;;12.15;77.72;101372.84;4998339;28;20645;-66
2021/06/01 02:43:37;;;;;;;10.03;6.77;;;;;;;12.13;77.78;101374.72;5015233;28;20663;-66
2021/06/01 02:46:02;;;;;;;12.17;7.53;;;;;;;12.10;78.07;101375.75;5015331;28;20216;-66
2021/06/01 02:48:27;;;;;;;9.17;7.27;;;;;;;12.10;78.58;101375.75;4997871;28;20201;-67
2021/06/01 02:50:57;;;;;;;13.00;7.90;;;;;;;12.09;78.03;101363.31;4997955;28;20231;-66
2021/06/01 02:53:23;;;;;;;8.40;7.13;;;;;;;12.11;78.51;101368.59;4998570;28;20177;-66
2021/06/01 02:55:48;;;;;;;11.10;7.90;;;;;;;12.13;77.99;101364.88;4997720;28;20224;-66
2021/06/01 02:58:14;;;;;;;8.50;7.43;;;;;;;12.13;77.73;101361.34;4997757;28;20724;-66
2021/06/01 03:00:42;;;;;;;11.00;7.47;;;;;;;12.15;77.27;101362.13;4998136;28;20196;-66
2021/06/01 03:03:11;;;;;;;11.00;7.27;;;;;;;12.14;77.76;101353.22;4997548;28;20172;-66
2021/06/01 03:05:36;;;;;;;11.67;7.53;;;;;;;12.11;77.73;101350.72;5015403;28;20173;-66
2021/06/01 03:08:29;;;;;;;12.13;7.70;;;;;;;12.10;78.13;101349.00;4997343;28;20255;-65
2021/06/01 03:10:56;;;;;;;9.97;7.73;;;;;;;12.12;77.82;101349.78;4998196;28;20708;-66
2021/06/01 03:13:22;;;;;;;12.83;7.33;;;;;;;12.14;77.65;101344.34;4997184;28;20177;-65
2021/06/01 03:15:47;;;;;;;12.87;6.53;;;;;;;12.14;78.29;101347.88;4997165;28;20319;-66
2021/06/01 03:18:13;;;;;;;10.83;7.80;;;;;;;12.15;77.78;101346.94;5014743;28;20207;-67
2021/06/01 03:20:38;;;;;;;10.43;7.23;;;;;;;12.17;77.72;101344.19;4997562;28;20189;-67
2021/06/01 03:23:03;;;;;;;12.50;7.90;;;;;;;12.17;77.51;101349.53;5015303;28;20172;-67
2021/06/01 03:25:28;;;;;;;13.40;7.77;;;;;;;12.17;77.97;101345.03;4998703;28;20223;-67
2021/06/01 03:27:54;;;;;;;11.70;7.87;;;;;;;12.19;77.76;101347.66;5016271;28;20483;-67
2021/06/01 03:30:20;;;;;;;10.57;7.80;;;;;;;12.20;77.97;101350.25;5000197;28;20271;-67
2021/06/01 03:32:45;;;;;;;12.67;8.17;;;;;;;12.19;77.67;101348.50;4996966;28;20188;-66
2021/06/01 03:35:10;;;;;;;15.50;8.37;;;;;;;12.24;77.53;101344.72;5016206;28;20185;-67
2021/06/01 03:37:36;;;;;;;12.67;7.87;;;;;;;12.26;77.11;101342.84;5016265;28;20570;-67
2021/06/01 03:40:03;;;;;;;13.67;8.37;;;;;;;12.27;77.17;101336.56;5016145;28;20239;-70
2021/06/01 03:42:28;;;;;;;11.27;6.90;;;;;;;12.34;77.45;101343.31;4997472;28;20557;-66
2021/06/01 03:44:53;;;;;;;12.33;7.67;;;;;;;12.34;77.26;101346.88;5014564;28;20642;-67
2021/06/01 03:47:18;;;;;;;9.90;7.40;;;;;;;12.34;76.80;101338.84;5014638;28;20188;-67
2021/06/01 03:49:44;;;;;;;10.07;7.90;;;;;;;12.31;77.25;101347.03;4980622;28;20220;-67
2021/06/01 03:52:09;;;;;;;13.80;8.03;;;;;;;12.24;77.31;101334.88;5015440;28;20185;-66
2021/06/01 03:54:35;;;;;;;10.33;7.40;;;;;;;12.24;78.08;101342.06;4997489;28;20193;-67
2021/06/01 03:57:01;;;;;;;10.73;7.77;;;;;;;12.20;77.98;101336.00;5014283;28;20180;-66
2021/06/01 03:59:26;;;;;;;10.47;8.00;;;;;;;12.20;77.70;101342.22;5013890;28;20255;-67
2021/06/01 04:01:51;;;;;;;11.13;7.47;;;;;;;12.20;77.59;101342.22;5013978;28;20267;-67
2021/06/01 04:04:16;;;;;;;11.57;7.90;;;;;;;12.20;78.09;101342.22;5013843;28;20653;-67
2021/06/01 04:06:42;;;;;;;13.77;7.90;;;;;;;12.22;78.14;101342.13;5014063;28;20192;-67
2021/06/01 04:09:07;;;;;;;11.63;7.27;;;;;;;12.23;77.60;101349.22;4996472;28;20336;-67
2021/06/01 04:11:32;;;;;;;15.63;8.23;;;;;;;12.23;77.70;101346.53;5013662;28;20247;-67
2021/06/01 04:13:58;;;;;;;14.37;8.10;;;;;;;12.32;77.58;101351.44;5013806;28;20220;-67
2021/06/01 04:16:23;;;;;;;13.10;8.10;;;;;;;12.32;77.86;101345.22;5013737;28;20189;-66
2021/06/01 04:18:48;;;;;;;13.90;7.73;;;;;;;12.36;77.55;101350.34;4996572;28;20201;-67
2021/06/01 04:21:14;;;;;;;13.00;7.67;;;;;;;12.39;77.20;101354.66;5014103;28;20188;-76
2021/06/01 04:23:39;;;;;;;12.07;7.33;;;;;;;12.46;76.90;101343.53;4996102;28;20173;-76
2021/06/01 04:26:04;;;;;;;9.50;6.97;;;;;;;12.53;76.07;101352.97;4979669;28;20637;-75
2021/06/01 04:28:29;;;;;;;10.10;7.63;;;;;;;12.56;76.41;101343.91;4995981;28;20192;-72
2021/06/01 04:30:55;;;;;;;9.47;7.43;;;;;;;12.69;76.14;101353.03;5013326;28;20188;-67
2021/06/01 04:33:20;;;;;;;10.07;7.77;;;;;;;12.73;75.54;101359.97;5013534;28;20522;-66
2021/06/01 04:35:45;;;;;;;11.87;7.93;;;;;;;12.78;75.47;101363.25;4995884;28;20203;-67
2021/06/01 04:38:11;;;;;;;10.73;6.83;;;;;;;12.81;75.49;101357.72;5013226;28;20265;-67
2021/06/01 04:40:36;;;;;;;8.90;6.20;;;;;;;12.93;75.43;101356.19;5014047;28;20181;-67
2021/06/01 04:43:01;;;;;;;12.30;7.17;;;;;;;13.03;74.44;101362.81;4979027;28;20537;-67
2021/06/01 04:45:27;;;;;;;11.83;7.03;;;;;;;13.15;73.95;101361.25;5013361;28;20176;-67
2021/06/01 04:47:52;;;;;;;9.40;7.20;;;;;;;13.16;74.19;101357.63;5012932;28;20208;-67
2021/06/01 04:50:17;;;;;;;12.13;7.87;;;;;;;13.20;74.19;101351.19;5013107;28;20169;-67
2021/06/01 04:52:43;;;;;;;11.27;6.90;;;;;;;13.18;74.23;101341.50;5013222;28;20676;-67
2021/06/01 04:55:10;;;;;;;10.10;6.80;;;;;;;13.14;73.89;101348.81;4995070;28;20264;-67
2021/06/01 04:57:35;;;;;;;11.87;7.37;;;;;;;13.19;74.26;101351.25;5012721;28;20291;-69
2021/06/01 05:00:00;;;;;;;12.70;7.97;;;;;;;13.19;74.28;101345.91;5013044;28;20205;-67
2021/06/01 05:02:26;;;;;;;11.83;7.30;;;;;;;13.25;74.14;101353.59;4995310;28;20231;-67
2021/06/01 05:04:51;;;;;;;13.77;7.40;;;;;;;13.28;73.62;101350.75;5013527;28;20181;-73
2021/06/01 05:07:16;;;;;;;8.70;6.47;;;;;;;13.30;73.66;101356.88;5012686;28;20613;-69
2021/06/01 05:09:42;;;;;;;8.47;6.17;;;;;;;13.37;73.37;101361.81;5013185;28;20196;-68
2021/06/01 05:12:07;;;;;;;12.03;6.67;;;;;;;13.46;73.18;101363.13;4995468;28;20185;-70
2021/06/01 05:14:33;;;;;;;9.87;7.53;;;;;;;13.58;73.30;101353.50;5012651;28;20173;-68
2021/06/01 05:16:58;;;;;;;12.73;6.53;;;;;;;13.63;72.93;101343.38;4995227;28;20188;-68
2021/06/01 05:19:23;;;;;;;13.03;7.43;;;;;;;13.70;72.80;101342.94;4995171;28;20197;-68
2021/06/01 05:21:49;;;;;;;14.67;7.50;;;;;;;13.79;72.83;101338.88;5012866;28;20232;-69
2021/06/01 05:24:14;;;;;;;9.53;6.47;;;;;;;13.86;71.87;101334.88;4995084;28;20177;-69
2021/06/01 05:26:40;;;;;;;10.83;6.53;;;;;;;13.95;71.55;101342.38;4995081;28;20180;-69
2021/06/01 05:29:06;;;;;;;11.47;8.20;;;;;;;14.02;71.76;101337.50;5012439;28;20283;-68
2021/06/01 05:31:45;;;;;;;10.80;6.67;;;;;;;14.07;71.08;101341.66;5013466;28;20193;-69
2021/06/01 05:34:12;;;;;;;9.53;7.13;;;;;;;14.12;71.17;101332.44;5012901;28;20221;-68
2021/06/01 05:36:37;;;;;;;7.47;6.50;;;;;;;14.17;70.96;101338.44;4978846;28;20181;-69
2021/06/01 05:39:11;;;;;;;11.33;6.50;;;;;;;14.14;70.77;101331.44;4994713;28;20216;-69
2021/06/01 05:41:36;;;;;;;14.40;6.80;;;;;;;14.22;71.17;101333.66;4994929;28;20546;-69
2021/06/01 05:44:02;;;;;;;16.77;7.27;;;;;;;14.25;71.12;101325.41;4994868;28;20310;-69
2021/06/01 05:46:28;;;;;;;8.93;6.73;;;;;;;14.41;71.21;101334.25;5012758;28;20654;-69
2021/06/01 05:48:54;;;;;;;9.60;6.00;;;;;;;14.60;70.27;101331.34;4995172;28;20193;-69
2021/06/01 05:51:23;;;;;;;11.70;6.40;;;;;;;14.74;70.17;101330.47;5012509;28;20234;-69
2021/06/01 05:53:48;;;;;;;11.67;6.10;;;;;;;14.76;70.20;101329.44;4995867;28;20263;-68
2021/06/01 05:56:13;;;;;;;9.53;6.00;;;;;;;14.87;69.86;101331.47;5016272;28;20180;-68
2021/06/01 05:58:38;;;;;;;10.73;5.63;;;;;;;14.97;69.58;101329.91;5015959;28;20197;-68
2021/06/01 06:01:04;;;;;;;8.90;6.00;;;;;;;15.09;69.96;101329.13;4998946;28;20251;-68
2021/06/01 06:03:29;;;;;;;8.63;6.10;;;;;;;15.23;69.04;101323.72;5015825;28;20181;-68
2021/06/01 06:05:54;;;;;;;9.83;5.97;;;;;;;15.37;69.08;101328.22;4998907;28;20218;-68
2021/06/01 06:08:20;;;;;;;10.07;5.50;;;;;;;15.49;67.36;101329.22;4998272;28;20250;-68
2021/06/01 06:10:47;;;;;;;8.30;5.93;;;;;;;15.62;67.21;101319.44;4998176;28;20177;-68
2021/06/01 06:13:13;;;;;;;12.87;5.73;;;;;;;15.58;65.86;101323.28;5015734;28;20290;-68
2021/06/01 06:15:40;;;;;;;8.03;6.10;;;;;;;15.64;66.22;101330.97;5015721;28;20651;-68
2021/06/01 06:18:23;;;;;;;10.87;5.53;;;;;;;15.74;65.32;101321.31;4998675;28;20584;-68
2021/06/01 06:20:48;;;;;;;7.83;5.40;;;;;;;15.72;65.83;101320.56;4998647;28;20240;-68
2021/06/01 06:23:13;;;;;;;9.73;5.47;;;;;;;15.80;66.07;101331.66;5015615;28;20208;-67
2021/06/01 06:25:39;;;;;;;9.60;5.67;;;;;;;15.87;65.79;101324.03;4998133;28;20661;-68
2021/06/01 06:28:04;;;;;;;8.87;5.63;;;;;;;15.93;65.99;101329.84;5015560;28;20212;-68
2021/06/01 06:30:29;;;;;;;6.83;5.20;;;;;;;15.93;66.07;101329.00;5015464;28;20184;-68
2021/06/01 06:32:55;;;;;;;9.93;5.40;;;;;;;16.00;66.52;101334.84;5015440;28;20173;-68
2021/06/01 06:35:20;;;;;;;9.33;5.93;;;;;;;16.01;66.42;101336.59;5015516;28;20185;-68
2021/06/01 06:37:46;;;;;;;10.47;5.83;;;;;;;16.14;65.58;101334.78;5015674;28;20181;-68
2021/06/01 06:40:11;;;;;;;7.47;4.93;;;;;;;16.28;65.29;101334.69;5015731;28;20640;-69
2021/06/01 06:42:37;;;;;;;8.93;5.50;;;;;;;16.37;65.43;101330.50;4981477;28;20643;-68
2021/06/01 06:45:08;;;;;;;8.87;5.30;;;;;;;16.62;64.87;101326.94;4997991;28;20177;-68
2021/06/01 06:47:43;;;;;;;8.10;5.20;;;;;;;16.81;63.94;101317.50;4997819;28;20556;-68
2021/06/01 06:50:10;;;;;;;7.97;5.30;;;;;;;16.75;64.43;101314.38;4982777;28;20165;-68
2021/06/01 06:52:36;;;;;;;8.47;5.20;;;;;;;17.25;63.46;101315.25;4997519;28;20184;-68
2021/06/01 06:55:03;;;;;;;7.70;4.70;;;;;;;17.46;61.64;101313.66;5015115;28;20211;-68
2021/06/01 06:57:29;;;;;;;12.53;5.33;;;;;;;17.55;60.83;101307.59;5015455;28;20276;-68
2021/06/01 06:59:54;;;;;;;7.23;4.83;;;;;;;17.84;60.12;101304.56;5015193;28;20196;-68
2021/06/01 07:02:20;;;;;;;7.63;4.33;;;;;;;17.96;59.84;101312.59;5015265;28;20188;-68
2021/06/01 07:04:45;;;;;;;14.93;5.47;;;;;;;18.01;59.66;101313.13;4997555;28;20542;-68
2021/06/01 07:07:10;;;;;;;6.93;4.50;;;;;;;18.48;57.41;101308.56;5014443;28;20176;-69
2021/06/01 07:09:38;;;;;;;8.77;4.70;;;;;;;18.39;56.89;101312.84;4997445;28;20247;-67
2021/06/01 07:12:04;;;;;;;11.70;5.10;;;;;;;18.13;56.79;101308.59;4997608;28;20182;-68
2021/06/01 07:14:40;;;;;;;11.37;4.47;;;;;;;18.18;54.92;101303.69;4997439;28;20177;-68
2021/06/01 07:17:05;;;;;;;11.10;4.30;;;;;;;18.02;55.30;101305.88;4997390;28;20188;-68
2021/06/01 07:19:31;;;;;;;7.30;3.90;;;;;;;17.82;55.13;101296.56;4997048;28;20211;-68
2021/06/01 07:21:56;;;;;;;9.43;4.63;;;;;;;17.90;55.73;101296.88;5014860;28;20250;-68
2021/06/01 07:24:21;;;;;;;5.43;4.10;;;;;;;18.31;55.83;101296.38;5014464;28;20176;-68
2021/06/01 07:26:46;;;;;;;9.83;4.63;;;;;;;18.70;54.15;101296.97;5015697;28;20176;-68
2021/06/01 07:29:12;;;;;;;8.27;4.10;;;;;;;18.74;54.16;101287.63;4996957;28;20321;-68
2021/06/01 07:31:37;;;;;;;7.50;4.17;;;;;;;18.70;54.67;101288.84;5014592;28;20184;-68
2021/06/01 07:34:02;;;;;;;9.30;4.50;;;;;;;18.77;53.89;101289.22;4996903;28;20217;-68
2021/06/01 07:36:28;;;;;;;11.73;4.47;;;;;;;19.03;52.01;101285.28;4996823;28;20183;-68
2021/06/01 07:38:53;;;;;;;7.77;4.77;;;;;;;19.12;52.21;101275.53;5028858;22;20260;-72
2021/06/01 07:41:18;;;;;;;6.27;3.70;;;;;;;19.11;52.64;101268.41;5016206;28;20187;-72
2021/06/01 07:43:43;;;;;;;10.07;4.33;;;;;;;19.04;50.74;101268.06;5014553;28;20202;-73
2021/06/01 07:46:09;;;;;;;8.87;4.67;;;;;;;19.05;50.00;101265.22;5014761;28;20227;-72
2021/06/01 07:48:39;;;;;;;6.90;4.23;;;;;;;19.30;49.94;101269.47;5014279;28;20776;-72
2021/06/01 07:51:10;;;;;;;8.23;4.60;;;;;;;19.12;49.83;101264.72;4997613;28;20220;-72
2021/06/01 07:53:36;;;;;;;7.07;4.43;;;;;;;18.80;50.49;101276.31;4981031;28;20172;-73
2021/06/01 07:56:01;;;;;;;7.57;4.53;;;;;;;18.88;50.45;101278.38;4996659;28;20184;-71
2021/06/01 07:58:27;;;;;;;6.23;3.57;;;;;;;19.13;50.83;101274.56;4996746;28;20577;-73
2021/06/01 08:00:52;;;;;;;12.30;4.50;;;;;;;19.62;49.89;101274.09;5014581;28;20263;-73
2021/06/01 08:03:17;;;;;;;5.83;4.00;;;;;;;19.35;51.14;101264.56;5014193;28;20181;-73
2021/06/01 08:05:43;;;;;;;5.77;4.10;;;;;;;19.46;49.69;101269.06;5014458;28;20645;-73
2021/06/01 08:08:09;;;;;;;8.63;5.40;;;;;;;19.71;48.68;101267.06;4996561;28;20633;-72
2021/06/01 08:10:34;;;;;;;7.93;4.53;;;;;;;19.76;49.46;101259.41;5014165;28;20176;-72
2021/06/01 08:13:01;;;;;;;7.90;3.57;;;;;;;19.93;49.55;101258.81;5013948;28;20181;-72
2021/06/01 08:15:26;;;;;;;7.00;4.37;;;;;;;19.63;48.00;101252.28;4996455;28;20176;-73
2021/06/01 08:17:55;;;;;;;8.70;3.80;;;;;;;20.00;48.30;101268.13;5014002;28;20185;-72
2021/06/01 08:20:32;;;;;;;7.77;3.63;;;;;;;20.14;49.20;101258.84;5014385;28;20288;-72
2021/06/01 08:22:57;;;;;;;11.47;4.43;;;;;;;19.88;48.13;101250.22;5016195;28;20610;-72
2021/06/01 08:25:23;;;;;;;7.10;3.70;;;;;;;19.85;48.56;101259.47;5009795;28;20239;-72
2021/06/01 08:27:48;;;;;;;10.60;3.97;;;;;;;19.62;46.43;101252.41;4988990;28;20183;-73
2021/06/01 08:30:14;;;;;;;8.20;4.07;;;;;;;19.39;46.98;101242.66;4996503;28;20657;-72
2021/06/01 08:32:39;;;;;;;5.23;3.10;;;;;;;19.39;46.22;101231.81;4979948;28;20185;-72
2021/06/01 08:35:05;;;;;;;5.90;3.10;;;;;;;19.47;46.30;101240.16;4996034;28;20181;-72
2021/06/01 08:37:31;;;;;;;6.30;2.87;;;;;;;19.76;45.13;101237.75;5013647;28;20196;-73
2021/06/01 08:39:56;;;;;;;6.83;3.43;;;;;;;19.82;45.79;101243.47;5013708;28;20248;-72
2021/06/01 08:42:23;;;;;;;7.63;3.77;;;;;;;20.19;45.23;101232.19;5013611;28;20181;-72
2021/06/01 08:44:49;;;;;;;6.37;3.70;;;;;;;19.75;45.84;101227.91;4979760;28;20189;-73
2021/06/01 08:47:18;;;;;;;5.50;3.20;;;;;;;19.90;43.76;101242.81;4996039;28;20184;-71
2021/06/01 08:49:43;;;;;;;6.00;3.13;;;;;;;20.11;43.90;101243.69;5013602;28;20262;-72
2021/06/01 08:52:08;;;;;;;6.33;2.77;;;;;;;20.36;43.40;101234.28;4980216;28;20223;-72
2021/06/01 08:54:34;;;;;;;6.57;2.93;;;;;;;20.56;41.47;101241.56;5014934;28;20189;-72
2021/06/01 08:56:59;;;;;;;5.40;3.17;;;;;;;19.83;43.86;101238.94;4996379;28;20230;-71
2021/06/01 08:59:25;;;;;;;5.47;2.80;;;;;;;20.32;42.56;101234.69;5013245;28;20204;-72
2021/06/01 09:01:50;;;;;;;5.53;2.90;;;;;;;20.30;42.22;101238.38;5006298;28;20185;-71
2021/06/01 09:04:15;;;;;;;5.27;3.03;;;;;;;20.62;42.60;101236.56;5027098;28;20176;-72
2021/06/01 09:06:43;;;;;;;4.13;3.00;;;;;;;20.36;42.22;101238.84;5016438;28;20227;-71
2021/06/01 09:14:50;;;;;;;4.90;2.37;;;;;;;21.26;38.86;101225.38;4998907;28;20179;-71
2021/06/01 09:22:46;;;;;;;4.60;2.40;;;;;;;21.59;38.46;101225.00;4998280;28;20299;-72
2021/06/01 09:25:16;;;;;;;4.03;2.50;;;;;;;21.57;37.26;101231.56;5013698;28;20194;-72
2021/06/01 09:27:46;;;;;;;6.47;2.93;;;;;;;21.17;37.15;101235.16;5013603;28;20169;-73
2021/06/01 09:30:32;;;;;;;4.60;2.77;;;;;;;21.02;38.97;101231.16;5015716;28;20247;-73
2021/06/01 09:32:57;;;;;;;4.20;2.70;;;;;;;20.81;41.14;101229.41;4999516;28;20169;-75
2021/06/01 09:35:43;;;;;;;4.47;2.23;;;;;;;20.98;37.72;101221.56;5016855;28;20541;-73
2021/06/01 09:38:08;;;;;;;3.63;2.37;;;;;;;20.82;36.78;101216.69;4999574;28;20203;-74
2021/06/01 09:40:34;;;;;;;6.37;2.63;;;;;;;20.33;37.67;101220.13;5017118;28;20189;-73
2021/06/01 09:43:00;;;;;;;4.73;2.90;;;;;;;20.39;39.02;101222.31;5016937;28;20173;-73
2021/06/01 09:45:25;;;;;;;7.33;2.80;;;;;;;21.22;38.71;101212.06;5016680;28;20181;-73
2021/06/01 09:47:54;;;;;;;4.63;2.70;;;;;;;21.67;38.11;101219.69;5017095;28;20181;-73
2021/06/01 09:50:34;;;;;;;3.63;2.50;;;;;;;21.30;39.06;101222.25;4999624;28;20185;-74
2021/06/01 09:53:04;;;;;;;5.13;2.50;;;;;;;21.49;37.68;101213.25;4999582;28;20175;-72
2021/06/01 09:55:35;;;;;;;3.87;2.30;;;;;;;22.00;37.92;101215.66;5016743;28;20192;-73
2021/06/01 09:58:03;;;;;;;8.60;2.77;;;;;;;21.19;38.04;101208.78;4999697;28;20192;-73
2021/06/01 10:00:31;;;;;;;7.80;3.30;;;;;;;21.05;40.28;101220.03;4998873;28;20195;-73
2021/06/01 10:02:57;;;;;;;5.73;3.03;;;;;;;20.85;40.70;101225.41;4999719;28;20210;-73
2021/06/01 10:05:41;;;;;;;7.13;3.23;;;;;;;21.46;39.76;101214.38;5016315;28;20727;-73
2021/06/01 10:08:16;;;;;;;6.90;3.53;;;;;;;22.12;38.58;101227.25;4998880;28;20533;-73
2021/06/01 10:10:55;;;;;;;7.83;3.60;;;;;;;21.33;40.67;101215.69;4998930;28;20169;-73
2021/06/01 10:13:24;;;;;;;5.47;3.30;;;;;;;22.23;40.19;101227.06;5016567;28;20181;-72
2021/06/01 10:15:51;;;;;;;7.10;4.33;;;;;;;21.33;42.50;101215.69;4999040;28;20200;-73
2021/06/01 10:18:19;;;;;;;5.40;3.77;;;;;;;21.11;42.89;101222.16;4998742;28;20192;-73
2021/06/01 10:20:45;;;;;;;8.17;3.97;;;;;;;21.26;42.83;101220.81;5016160;28;20276;-72
2021/06/01 10:23:13;;;;;;;11.07;2.97;;;;;;;21.64;42.12;101221.84;4998612;28;20180;-73
2021/06/01 10:25:38;;;;;;;6.70;3.30;;;;;;;21.18;43.00;101215.19;5015990;28;20726;-72
2021/06/01 10:28:07;;;;;;;5.53;3.07;;;;;;;20.43;43.11;101218.34;4998425;28;20177;-73
2021/06/01 10:30:35;;;;;;;6.23;3.60;;;;;;;20.93;42.28;101219.28;4998718;28;20319;-72
2021/06/01 10:33:07;;;;;;;4.27;3.13;;;;;;;20.96;42.23;101220.84;4997874;28;20169;-73
2021/06/01 10:35:36;;;;;;;6.70;3.20;;;;;;;21.00;42.47;101225.00;4998135;28;20173;-73
2021/06/01 10:50:06;;;;;;;4.63;3.00;;;;;;;21.46;43.32;101213.53;5015731;28;20204;-74
2021/06/01 10:52:32;;;;;;;4.80;2.97;;;;;;;21.38;41.71;101218.81;5016278;28;20172;-72
2021/06/01 10:55:00;;;;;;;5.13;2.80;;;;;;;21.34;41.45;101218.25;4997716;28;20185;-72
2021/06/01 10:58:11;;;;;;;8.63;2.90;;;;;;;21.21;41.22;101214.94;4997914;28;20177;-73
2021/06/01 11:03:18;;;;;;;6.87;2.93;;;;;;;21.04;41.41;101207.44;5015726;28;20176;-72
2021/06/01 11:05:56;;;;;;;6.57;2.80;;;;;;;21.18;40.69;101202.47;5015767;28;20541;-73
2021/06/01 11:08:44;;;;;;;4.90;2.63;;;;;;;21.30;40.62;101210.53;5015255;28;20193;-73
2021/06/01 11:11:32;;;;;;;5.20;2.90;;;;;;;20.72;41.01;101205.78;4998156;28;20614;-73
2021/06/01 11:14:03;;;;;;;3.70;2.67;;;;;;;20.69;41.58;101203.34;4997973;28;20193;-73
2021/06/01 11:16:55;;;;;;;11.23;3.00;;;;;;;21.03;41.96;101203.88;4997860;28;20711;-72
2021/06/01 11:19:23;;;;;;;4.43;2.50;;;;;;;20.08;40.80;101208.75;5014990;28;20566;-72
2021/06/01 11:21:57;;;;;;;3.03;1.90;;;;;;;19.51;39.31;101206.44;5015502;28;20173;-73
2021/06/01 11:33:17;;;;;;;4.70;2.30;;;;;;;18.94;41.87;101210.28;4954692;29;20171;-73
2021/06/01 11:35:49;;;;;;;3.50;2.20;;;;;;;19.17;42.76;101216.50;4995382;28;20764;-72
2021/06/01 11:41:07;;;;;;;5.13;2.50;;;;;;;19.24;45.74;101217.69;4997348;28;20597;-72
2021/06/01 11:43:33;;;;;;;3.07;2.23;;;;;;;19.21;45.46;101215.25;4999967;28;20212;-73
2021/06/01 11:46:23;;;;;;;5.53;2.80;;;;;;;19.19;45.41;101215.38;4997668;28;20173;-72
2021/06/01 11:51:19;;;;;;;5.40;2.90;;;;;;;19.89;45.03;101205.91;5015159;28;20239;-72
2021/06/01 11:53:49;;;;;;;7.27;3.00;;;;;;;20.56;42.66;101210.88;5014791;28;20185;-72
2021/06/01 11:56:19;;;;;;;8.57;3.13;;;;;;;21.40;43.04;101209.53;5014844;28;20157;-73
2021/06/01 12:02:02;;;;;;;6.30;3.47;;;;;;;20.91;45.27;101211.28;4999679;28;20215;-72
2021/06/01 12:04:52;;;;;;;6.00;3.77;;;;;;;20.81;46.39;101207.69;4998954;28;20149;-73
2021/06/01 12:13:08;;;;;;;11.73;5.80;;;;;;;21.76;48.26;101201.66;5014554;28;20535;-73
2021/06/01 12:18:40;;;;;;;7.73;5.43;;;;;;;22.10;48.69;101210.22;5015496;28;20208;-73
2021/06/01 12:21:27;;;;;;;13.80;6.63;;;;;;;21.36;49.41;101199.09;5014284;28;20157;-72